Latest Weather Observations for Parafield

IDS60901

Issued at 12:31 pm CST Sunday 26 April 2015 (issued every 10 minutes, with the page automatically refreshed every 10 minutes)

About weather observations | Map of Adelaide area stations | Latest observations for Adelaide area | Other Formats
Station Details ID: 023013 Name: PARAFIELD AIRPORT Lat: -34.80 Lon: 138.63 Height: 9.5 m
Data from the previous 72 hours. | See also: Recent months at Parafield
Date/Time
CST
Tmp

°C
App
Tmp
°C
Dew
Point
°C
Rel
Hum
%
Delta-T

°C
Wind Press
QNH
hPa
Press
MSL
hPa
Rain
since
9 am
mm
Dir
 
Spd
km/h
Gust
km/h
Spd
kts
Gust
kts
26/12:30pm 16.6 12.8 9.8 64 3.5 SW 20 30 11 16 1024.5 1024.4 0.0
26/12:00pm 14.9 10.0 9.9 72 2.6 SSW 26 35 14 19 1024.9 1024.8 0.0
26/11:30am 16.5 12.8 10.1 66 3.4 SSW 20 28 11 15 1025.0 1024.9 0.0
26/11:00am 16.1 12.0 10.0 67 3.2 SW 22 30 12 16 1025.0 1024.9 0.0
26/10:30am 15.7 12.6 8.9 64 3.5 SSW 15 26 8 14 1025.0 1024.9 0.0
26/10:00am 14.9 12.3 9.3 69 2.9 W 13 17 7 9 1025.2 1025.1 0.0
26/09:30am 14.7 13.2 9.3 70 2.8 SW 7 15 4 8 1025.1 1025.0 0.0
26/09:00am 13.9 13.1 9.5 75 2.2 SE 4 7 2 4 1025.1 1025.0 0.6
26/08:30am 11.7 10.9 9.6 87 1.1 SW 4 7 2 4 1025.1 1025.0 0.6
26/08:00am 11.1 11.2 10.2 94 0.5 CALM 0 0 0 0 1024.7 1024.6 0.6
26/07:30am 8.3 7.3 7.5 95 0.4 N 2 6 1 3 1024.4 1024.3 0.6
26/07:00am 6.5 4.2 5.8 95 0.3 NE 7 9 4 5 1023.8 1023.7 0.6
26/06:30am 6.2 3.9 5.5 95 0.3 ENE 7 9 4 5 1023.4 1023.3 0.6
26/06:05am 7.1 6.3 6.4 95 0.3 CALM 0 0 0 0 1023.1 1023.0 0.6
26/06:00am 7.0 6.2 6.3 95 0.3 CALM 0 0 0 0 1023.1 1023.0 0.6
26/05:46am 6.7 5.7 5.8 94 0.4 CALM 0 0 0 0 1022.9 1022.8 0.6
26/05:30am 6.0 4.9 5.1 94 0.4 CALM 0 0 0 0 1022.8 1022.7 0.6
26/05:00am 7.1 5.1 6.2 94 0.4 E 6 7 3 4 1022.6 1022.5 0.6
26/04:30am 6.8 4.5 5.6 92 0.5 S 7 9 4 5 1022.4 1022.3 0.6
26/04:00am 8.4 7.7 7.0 91 0.7 CALM 0 0 0 0 1022.1 1022.0 0.6
26/03:30am 8.3 7.5 6.3 87 0.9 CALM 0 0 0 0 1022.0 1021.9 0.6
26/03:00am 10.2 9.6 7.6 84 1.2 CALM 0 0 0 0 1022.0 1021.9 0.6
26/02:30am 9.3 6.8 6.7 84 1.2 SSW 9 11 5 6 1022.1 1022.0 0.6
26/02:00am 10.5 7.9 7.7 83 1.3 SSW 11 15 6 8 1022.0 1021.9 0.6
26/01:30am 10.5 8.8 8.3 86 1.1 S 7 7 4 4 1021.9 1021.8 0.6
26/01:00am 10.5 8.6 7.7 83 1.3 SSW 7 11 4 6 1021.7 1021.6 0.6
26/12:30am 11.7 8.8 8.2 79 1.7 SSW 13 19 7 10 1021.5 1021.5 0.6
26/12:00am 12.1 9.9 9.3 83 1.4 S 11 17 6 9 1021.4 1021.4 0.6
 
Date/Time
CST
Tmp

°C
App
Tmp
°C
Dew
Point
°C
Rel
Hum
%
Delta-T

°C
Wind Press
QNH
hPa
Press
MSL
hPa
Rain
since
9 am
mm
Dir
 
Spd
km/h
Gust
km/h
Spd
kts
Gust
kts
25/11:30pm 10.8 9.4 9.7 93 0.6 S 7 11 4 6 1021.3 1021.3 0.6
25/11:00pm 10.1 8.7 8.9 92 0.6 ESE 6 7 3 4 1021.2 1021.2 0.6
25/10:30pm 10.8 8.9 9.1 89 0.8 SW 9 13 5 7 1021.2 1021.2 0.6
25/10:00pm 10.4 8.0 8.7 89 0.8 SSW 11 13 6 7 1021.0 1021.0 0.6
25/09:30pm 10.9 8.7 9.2 89 0.8 SSW 11 13 6 7 1020.6 1020.6 0.6
25/09:00pm 12.2 10.2 10.1 87 1.1 S 11 13 6 7 1020.5 1020.5 0.6
25/08:30pm 12.8 9.4 10.5 86 1.2 S 19 22 10 12 1020.2 1020.2 0.6
25/08:00pm 13.6 9.9 10.2 80 1.8 S 20 28 11 15 1019.9 1019.9 0.6
25/07:30pm 13.7 9.6 10.1 79 1.9 SSW 22 28 12 15 1019.5 1019.5 0.6
25/07:00pm 13.7 10.2 10.3 80 1.8 SSW 19 22 10 12 1019.0 1019.0 0.6
25/06:30pm 14.1 10.5 9.9 76 2.2 SSW 19 26 10 14 1018.5 1018.5 0.6
25/06:00pm 14.1 9.9 9.9 76 2.2 S 22 32 12 17 1017.7 1017.7 0.6
25/05:30pm 14.7 9.9 10.3 75 2.3 SSW 26 41 14 22 1017.4 1017.4 0.6
25/05:00pm 15.1 11.1 10.3 73 2.5 SSW 22 32 12 17 1016.7 1016.7 0.6
25/04:30pm 15.6 10.2 10.8 73 2.5 SSW 30 37 16 20 1016.2 1016.2 0.6
25/04:00pm 15.7 11.7 11.9 78 2.1 SSW 24 35 13 19 1016.0 1016.0 0.6
25/03:30pm 14.8 10.7 12.7 87 1.2 SSW 26 33 14 18 1015.4 1015.4 0.6
25/03:25pm 15.0 10.6 13.0 88 1.1 SSW 28 46 15 25 1015.3 1015.3 0.6
25/03:00pm 16.0 11.7 12.0 77 2.2 SW 26 39 14 21 1015.0 1015.0 0.6
25/02:55pm 16.0 12.1 12.2 78 2.1 SSW 24 35 13 19 1015.0 1015.0 0.6
25/02:35pm 15.0 11.2 12.5 85 1.4 SW 24 32 13 17 1014.9 1014.9 0.6
25/02:30pm 14.8 11.1 12.7 87 1.2 SW 24 33 13 18 1014.9 1014.9 0.6
25/02:00pm 14.9 10.1 11.7 81 1.7 SW 28 37 15 20 1014.7 1014.7 0.6
25/01:30pm 15.5 10.7 10.3 71 2.7 SW 26 37 14 20 1014.4 1014.4 0.6
25/01:00pm 14.9 12.1 11.5 80 1.8 SW 17 24 9 13 1014.5 1014.5 0.6
25/12:30pm 16.3 11.3 9.5 64 3.5 WSW 26 32 14 17 1014.4 1014.4 0.0
25/12:00pm 16.1 10.6 9.3 64 3.5 SSW 28 37 15 20 1014.7 1014.7 0.0
25/11:30am 16.1 11.9 8.1 59 4.0 SW 20 39 11 21 1014.6 1014.6 0.0
25/11:00am 15.9 11.8 8.6 62 3.7 SW 20 30 11 16 1014.6 1014.6 0.0
25/10:30am 15.3 11.7 8.3 63 3.5 SW 17 24 9 13 1014.4 1014.4 0.0
25/10:00am 14.6 11.6 9.2 70 2.8 SW 15 20 8 11 1014.3 1014.3 0.0
25/09:30am 13.7 10.6 9.0 73 2.4 SW 15 19 8 10 1013.9 1013.9 0.0
25/09:00am 13.7 11.1 9.4 75 2.2 SW 13 17 7 9 1013.6 1013.6 8.8
25/08:30am 12.4 9.7 8.9 79 1.8 SW 13 17 7 9 1013.0 1013.0 8.8
25/08:00am 11.2 8.3 8.1 81 1.5 SW 13 20 7 11 1012.3 1012.3 8.8
25/07:30am 9.7 7.0 7.5 86 1.0 W 11 13 6 7 1011.2 1011.2 8.8
25/07:00am 9.0 6.4 6.3 83 1.2 SW 9 15 5 8 1010.3 1010.3 8.8
25/06:30am 9.7 5.2 6.8 82 1.4 S 20 30 11 16 1009.3 1009.3 8.8
25/06:00am 9.4 4.9 7.0 85 1.1 S 20 28 11 15 1008.5 1008.5 8.8
25/05:30am 9.3 5.0 7.7 90 0.8 SSW 20 26 11 14 1007.6 1007.6 8.8
25/05:00am 8.9 5.1 7.4 90 0.7 SW 17 19 9 10 1007.0 1007.0 8.8
25/04:30am 8.9 4.5 7.2 89 0.8 SSW 20 30 11 16 1006.2 1006.2 8.8
25/04:00am 8.9 3.8 7.5 91 0.7 SSW 24 30 13 16 1005.4 1005.4 8.8
25/03:30am 9.1 5.5 8.2 94 0.4 SSW 17 24 9 13 1004.2 1004.2 8.8
25/03:00am 8.3 5.6 7.4 94 0.4 SSW 11 13 6 7 1003.2 1003.2 8.8
25/02:30am 8.7 6.4 7.6 93 0.5 SSW 9 9 5 5 1002.4 1002.4 8.8
25/02:00am 9.7 7.2 8.3 91 0.7 SSW 11 15 6 8 1001.9 1001.9 8.8
25/01:55am 10.0 7.6 8.6 91 0.7 SSW 11 15 6 8 1001.8 1001.8 8.8
25/01:30am 10.4 7.7 9.0 91 0.7 SSW 13 19 7 10 1001.5 1001.5 8.4
25/01:07am 10.1 7.4 8.9 92 0.6 NNE 13 20 7 11 1000.9 1000.9 8.4
25/01:00am 9.6 5.6 8.4 92 0.6 NE 19 30 10 16 1001.2 1001.2 8.4
25/12:57am 9.6 5.4 8.4 92 0.6 NE 20 30 11 16 1001.0 1001.0 8.2
25/12:46am 9.5 5.3 8.3 92 0.6 NNE 20 28 11 15 1001.5 1001.5 6.8
25/12:30am 9.3 4.2 7.7 90 0.8 NNE 24 30 13 16 1001.7 1001.7 4.6
25/12:00am 8.9 3.7 7.2 89 0.8 N 24 32 13 17 1002.4 1002.4 4.6
 
Date/Time
CST
Tmp

°C
App
Tmp
°C
Dew
Point
°C
Rel
Hum
%
Delta-T

°C
Wind Press
QNH
hPa
Press
MSL
hPa
Rain
since
9 am
mm
Dir
 
Spd
km/h
Gust
km/h
Spd
kts
Gust
kts
24/11:30pm 9.2 3.3 7.5 89 0.8 N 28 33 15 18 1002.9 1002.9 4.6
24/11:00pm 9.4 3.1 7.3 87 1.0 N 30 39 16 21 1003.6 1003.6 4.6
24/10:30pm 10.2 4.3 7.4 83 1.3 N 28 39 15 21 1004.2 1004.2 4.6
24/10:00pm 10.7 5.8 8.5 86 1.1 N 24 32 13 17 1004.2 1004.2 4.6
24/09:30pm 11.0 7.1 8.8 86 1.1 N 19 28 10 15 1004.7 1004.7 4.6
24/09:00pm 11.3 6.9 9.0 86 1.1 NNW 22 33 12 18 1005.0 1005.0 4.4
24/08:30pm 11.0 6.3 9.1 88 0.9 NNW 24 35 13 19 1005.8 1005.8 4.4
24/08:16pm 11.0 5.4 8.8 86 1.1 N 28 50 15 27 1005.8 1005.8 4.2
24/08:00pm 11.3 5.6 8.5 83 1.4 N 28 35 15 19 1006.0 1006.0 3.0
24/07:30pm 10.8 7.7 8.9 88 0.9 N 15 20 8 11 1006.8 1006.8 3.0
24/07:15pm 10.9 7.0 8.8 87 1.0 NNW 19 26 10 14 1006.8 1006.8 3.0
24/07:00pm 11.3 6.9 9.0 86 1.1 NW 22 37 12 20 1007.0 1007.0 2.8
24/06:57pm 11.5 7.1 9.1 85 1.2 NNW 22 37 12 20 1007.1 1007.1 2.6
24/06:30pm 12.5 8.1 7.6 72 2.4 N 20 28 11 15 1006.9 1006.9 1.2
24/06:00pm 12.9 8.7 8.2 73 2.3 WNW 20 32 11 17 1007.3 1007.3 1.2
24/05:30pm 13.2 8.9 7.2 67 2.9 NW 19 24 10 13 1007.4 1007.4 1.2
24/05:00pm 14.0 8.1 7.3 64 3.3 WNW 28 37 15 20 1007.5 1007.5 1.2
24/04:30pm 14.5 7.7 7.5 63 3.5 WNW 33 48 18 26 1007.3 1007.3 1.2
24/04:00pm 15.7 8.5 5.9 52 4.7 W 33 44 18 24 1007.3 1007.3 1.2
24/03:30pm 16.5 9.9 7.7 56 4.4 W 32 41 17 22 1007.3 1007.3 1.2
24/03:00pm 15.1 9.3 7.9 62 3.6 WSW 28 39 15 21 1007.5 1007.5 1.2
24/02:30pm 16.3 10.1 7.8 57 4.3 W 30 41 16 22 1007.4 1007.4 1.2
24/02:00pm 16.4 9.8 7.6 56 4.4 W 32 44 17 24 1007.3 1007.3 1.2
24/01:30pm 14.5 8.0 8.0 65 3.2 W 32 44 17 24 1007.5 1007.5 1.2
24/01:00pm 15.1 9.7 8.1 63 3.5 W 26 39 14 21 1007.8 1007.8 1.2
24/12:30pm 13.9 10.0 9.3 74 2.4 WSW 20 30 11 16 1008.3 1008.3 1.2
24/12:00pm 13.4 9.2 9.8 79 1.9 W 22 30 12 16 1008.7 1008.7 1.2
24/11:30am 13.0 8.5 10.0 82 1.5 WSW 24 39 13 21 1008.9 1008.9 1.0
24/11:07am 12.7 7.2 9.3 80 1.7 WSW 28 41 15 22 1009.1 1009.1 0.8
24/11:00am 12.6 5.8 9.2 80 1.7 WSW 35 50 19 27 1009.1 1009.1 0.8
24/10:49am 13.2 6.9 10.9 86 1.2 W 35 50 19 27 1009.0 1009.0 0.8
24/10:44am 13.2 7.1 10.6 84 1.4 W 33 50 18 27 1008.8 1008.8 0.8
24/10:30am 12.7 5.3 9.7 82 1.5 WSW 39 54 21 29 1008.5 1008.5 0.8
24/10:19am 13.0 5.2 11.2 89 0.9 WSW 43 57 23 31 1008.3 1008.3 0.8
24/10:05am 13.6 7.5 11.8 89 1.0 WNW 35 54 19 29 1008.2 1008.2 0.6
24/10:03am 14.0 8.4 12.2 89 1.0 WNW 33 54 18 29 1008.3 1008.3 0.4
24/10:00am 14.6 9.2 12.3 86 1.3 NW 32 54 17 29 1008.2 1008.2 0.2
24/09:59am 15.0 9.6 12.3 84 1.5 NNW 32 54 17 29 1008.2 1008.2 0.0
24/09:58am 16.0 11.3 13.3 84 1.5 NNW 30 54 16 29 1008.1 1008.1 0.0
24/09:39am 15.5 12.4 12.3 81 1.7 NNW 20 32 11 17 1008.1 1008.1 0.0
24/09:30am 15.4 12.6 12.7 84 1.5 NNW 19 24 10 13 1008.2 1008.2 0.0
24/09:00am 14.2 11.1 12.1 87 1.1 N 20 30 11 16 1008.5 1008.5 0.6
24/08:33am 14.0 11.2 12.7 92 0.7 N 19 26 10 14 1008.5 1008.5 0.4
24/08:30am 14.0 11.0 12.6 91 0.8 N 20 26 11 14 1008.5 1008.5 0.4
24/08:20am 13.7 10.6 12.3 91 0.8 NNW 20 30 11 16 1008.7 1008.7 0.4
24/08:00am 13.7 11.1 12.1 90 0.9 N 17 20 9 11 1008.6 1008.6 0.0
24/07:52am 13.7 10.7 11.9 89 1.0 N 19 26 10 14 1008.6 1008.6 0.0
24/07:30am 13.5 10.8 11.7 89 1.0 N 17 22 9 12 1008.3 1008.3 0.0
24/07:00am 13.2 10.5 11.6 90 0.9 N 17 22 9 12 1008.6 1008.6 0.0
24/06:30am 13.0 10.3 11.7 92 0.7 N 17 20 9 11 1008.8 1008.8 0.0
24/06:00am 12.9 10.6 11.8 93 0.6 N 15 17 8 9 1009.0 1009.0 0.0
24/05:30am 12.8 10.9 11.9 94 0.5 N 13 17 7 9 1009.0 1009.0 0.0
24/05:00am 12.1 10.0 11.0 93 0.6 N 13 15 7 8 1009.0 1009.0 0.0
24/04:30am 12.4 10.3 11.3 93 0.6 NNE 13 15 7 8 1009.0 1009.0 0.0
24/04:02am 12.9 12.2 11.5 91 0.7 NNW 6 9 3 5 1009.2 1009.2 0.0
24/04:00am 13.0 12.4 11.6 91 0.7 NNW 6 7 3 4 1009.3 1009.3 0.0
24/03:30am 13.5 12.9 12.2 92 0.7 NNW 7 9 4 5 1009.7 1009.7 0.0
24/03:08am 13.5 12.5 12.2 92 0.7 N 9 9 5 5 1009.8 1009.8 0.0
24/03:00am 13.4 12.3 12.1 92 0.7 N 9 9 5 5 1010.0 1010.0 0.0
24/02:30am 13.1 12.3 11.7 91 0.7 N 7 9 4 5 1010.5 1010.5 0.0
24/02:16am 13.3 12.2 11.9 91 0.7 N 9 11 5 6 1010.5 1010.5 0.0
24/02:00am 13.7 12.7 12.3 91 0.8 N 9 11 5 6 1010.6 1010.6 0.0
24/01:30am 13.8 12.8 12.4 91 0.8 N 9 11 5 6 1011.0 1011.0 0.0
24/01:08am 13.9 13.0 12.5 91 0.8 NNE 9 9 5 5 1011.2 1011.2 0.0
24/01:00am 13.9 13.4 12.5 91 0.8 NNE 7 9 4 5 1011.2 1011.2 0.0
24/12:54am 13.8 13.2 12.4 91 0.8 NNE 7 7 4 4 1011.2 1011.2 0.0
24/12:53am 13.8 13.2 12.4 91 0.8 NNE 7 7 4 4 1011.2 1011.2 0.0
24/12:30am 13.6 13.0 12.2 91 0.8 N 7 9 4 5 1011.5 1011.5 0.0
24/12:29am 13.6 13.0 12.2 91 0.8 N 7 9 4 5 1011.5 1011.5 0.0
24/12:00am 13.4 12.7 12.0 91 0.8 NNE 7 9 4 5 1011.8 1011.8 0.0
 
Date/Time
CST
Tmp

°C
App
Tmp
°C
Dew
Point
°C
Rel
Hum
%
Delta-T

°C
Wind Press
QNH
hPa
Press
MSL
hPa
Rain
since
9 am
mm
Dir
 
Spd
km/h
Gust
km/h
Spd
kts
Gust
kts
23/11:30pm 13.4 12.6 11.8 90 0.9 NE 7 9 4 5 1012.0 1012.0 0.0
23/11:00pm 14.1 14.8 12.1 88 1.1 CALM 0 0 0 0 1012.5 1012.5 0.0
23/10:30pm 14.2 15.0 12.4 89 1.0 CALM 0 2 0 1 1013.1 1013.1 0.0
23/10:00pm 14.3 13.9 12.5 89 1.0 N 6 7 3 4 1013.2 1013.2 0.0
23/09:30pm 13.9 13.8 12.1 89 1.0 NE 4 7 2 4 1013.4 1013.4 0.0
23/09:00pm 14.2 15.0 12.4 89 1.0 CALM 0 0 0 0 1013.7 1013.7 0.0
23/08:30pm 14.1 14.8 12.1 88 1.1 CALM 0 0 0 0 1013.9 1013.9 0.0
23/08:00pm 14.5 15.3 12.4 87 1.1 CALM 0 0 0 0 1013.8 1013.8 0.0
23/07:30pm 14.7 14.1 12.2 85 1.4 WSW 7 9 4 5 1014.0 1014.0 0.0
23/07:00pm 15.2 13.8 12.1 82 1.7 WSW 11 13 6 7 1014.2 1014.2 0.0
23/06:30pm 15.4 14.8 11.8 79 1.9 W 6 9 3 5 1014.3 1014.3 0.0
23/06:00pm 15.0 14.0 11.0 77 2.1 SSW 7 9 4 5 1014.0 1014.0 0.0
23/05:30pm 15.8 14.4 11.0 73 2.6 SW 9 13 5 7 1014.2 1014.2 0.0
23/05:00pm 16.5 15.3 12.7 78 2.1 W 11 13 6 7 1014.2 1014.2 0.0
23/04:30pm 16.7 15.2 13.0 79 2.1 NW 13 17 7 9 1014.2 1014.2 0.0
23/04:00pm 17.8 15.8 11.6 67 3.4 WNW 13 19 7 10 1014.4 1014.4 0.0
23/03:30pm 18.2 16.1 11.3 64 3.8 WNW 13 17 7 9 1014.3 1014.3 0.0
23/03:00pm 18.8 17.5 11.4 62 4.0 WNW 9 17 5 9 1014.4 1014.4 0.0
23/02:30pm 18.6 17.1 10.7 60 4.3 W 9 11 5 6 1014.7 1014.7 0.0
23/02:00pm 18.4 17.4 11.0 62 4.0 WNW 7 11 4 6 1015.0 1015.0 0.0
23/01:30pm 17.9 16.3 11.5 66 3.5 W 11 15 6 8 1015.5 1015.5 0.0
23/01:00pm 17.2 17.5 11.0 67 3.3 CALM 0 0 0 0 1015.7 1015.7 0.0

Latest Capital City Observations: Canberra | Sydney | Melbourne | Brisbane | Adelaide | Perth | Hobart | Darwin

Other Formats:

Comma delimited format used in spreadsheet applications
http://www.bom.gov.au/fwo/IDS60901/IDS60901.95677.axf

JavaScript Object Notation format (JSON) in row-major order
http://www.bom.gov.au/fwo/IDS60901/IDS60901.95677.json